sensor_id;sensor_type;location;lat;lon;timestamp;P1;durP1;ratioP1;P2;durP2;ratioP2
24631;SDS011;59977;48.782;9.190;2023-02-19T00:01:05;5.78;;;2.80;;
24631;SDS011;59977;48.782;9.190;2023-02-19T00:03:32;3.45;;;2.55;;
24631;SDS011;59977;48.782;9.190;2023-02-19T00:06:02;4.25;;;2.20;;
24631;SDS011;59977;48.782;9.190;2023-02-19T00:08:30;3.50;;;2.28;;
24631;SDS011;59977;48.782;9.190;2023-02-19T00:11:00;3.83;;;2.47;;
24631;SDS011;59977;48.782;9.190;2023-02-19T00:13:30;2.67;;;2.13;;
24631;SDS011;59977;48.782;9.190;2023-02-19T00:15:59;2.85;;;2.20;;
24631;SDS011;59977;48.782;9.190;2023-02-19T00:18:30;3.20;;;1.93;;
24631;SDS011;59977;48.782;9.190;2023-02-19T00:20:55;7.05;;;2.60;;
24631;SDS011;59977;48.782;9.190;2023-02-19T00:23:21;5.00;;;2.88;;
24631;SDS011;59977;48.782;9.190;2023-02-19T00:25:47;7.47;;;2.20;;
24631;SDS011;59977;48.782;9.190;2023-02-19T00:28:12;3.22;;;2.00;;
24631;SDS011;59977;48.782;9.190;2023-02-19T00:30:38;2.22;;;1.65;;
24631;SDS011;59977;48.782;9.190;2023-02-19T00:33:03;5.55;;;2.15;;
24631;SDS011;59977;48.782;9.190;2023-02-19T00:35:32;2.70;;;1.85;;
24631;SDS011;59977;48.782;9.190;2023-02-19T00:38:00;4.85;;;1.70;;
24631;SDS011;59977;48.782;9.190;2023-02-19T00:40:25;2.63;;;1.90;;
24631;SDS011;59977;48.782;9.190;2023-02-19T00:42:51;3.15;;;1.85;;
24631;SDS011;59977;48.782;9.190;2023-02-19T00:45:17;2.55;;;1.52;;
24631;SDS011;59977;48.782;9.190;2023-02-19T00:47:43;2.97;;;1.35;;
24631;SDS011;59977;48.782;9.190;2023-02-19T00:50:08;3.13;;;1.60;;
24631;SDS011;59977;48.782;9.190;2023-02-19T00:52:34;3.72;;;1.67;;
24631;SDS011;59977;48.782;9.190;2023-02-19T00:55:00;2.42;;;1.50;;
24631;SDS011;59977;48.782;9.190;2023-02-19T00:57:26;2.33;;;1.30;;
24631;SDS011;59977;48.782;9.190;2023-02-19T00:59:51;1.48;;;1.10;;
24631;SDS011;59977;48.782;9.190;2023-02-19T01:02:17;3.28;;;1.50;;
24631;SDS011;59977;48.782;9.190;2023-02-19T01:04:42;1.98;;;1.30;;
24631;SDS011;59977;48.782;9.190;2023-02-19T01:07:08;1.48;;;1.27;;
24631;SDS011;59977;48.782;9.190;2023-02-19T01:09:34;2.63;;;1.50;;
24631;SDS011;59977;48.782;9.190;2023-02-19T01:11:59;3.75;;;1.48;;
24631;SDS011;59977;48.782;9.190;2023-02-19T01:14:25;4.20;;;2.10;;
24631;SDS011;59977;48.782;9.190;2023-02-19T01:16:51;2.00;;;1.30;;
24631;SDS011;59977;48.782;9.190;2023-02-19T01:19:16;1.40;;;1.30;;
24631;SDS011;59977;48.782;9.190;2023-02-19T01:21:42;2.78;;;1.30;;
24631;SDS011;59977;48.782;9.190;2023-02-19T01:24:08;4.10;;;1.83;;
24631;SDS011;59977;48.782;9.190;2023-02-19T01:26:33;3.17;;;1.40;;
24631;SDS011;59977;48.782;9.190;2023-02-19T01:28:59;2.78;;;1.33;;
24631;SDS011;59977;48.782;9.190;2023-02-19T01:31:26;1.50;;;1.20;;
24631;SDS011;59977;48.782;9.190;2023-02-19T01:33:53;1.73;;;1.38;;
24631;SDS011;59977;48.782;9.190;2023-02-19T01:36:21;2.42;;;1.50;;
24631;SDS011;59977;48.782;9.190;2023-02-19T01:38:47;2.83;;;1.20;;
24631;SDS011;59977;48.782;9.190;2023-02-19T01:41:23;3.42;;;1.30;;
24631;SDS011;59977;48.782;9.190;2023-02-19T01:46:32;3.28;;;1.33;;
24631;SDS011;59977;48.782;9.190;2023-02-19T01:49:04;2.30;;;1.35;;
24631;SDS011;59977;48.782;9.190;2023-02-19T01:51:34;1.73;;;1.20;;
24631;SDS011;59977;48.782;9.190;2023-02-19T01:54:03;1.88;;;1.25;;
24631;SDS011;59977;48.782;9.190;2023-02-19T01:56:31;3.90;;;1.50;;
24631;SDS011;59977;48.782;9.190;2023-02-19T01:58:59;2.13;;;1.40;;
24631;SDS011;59977;48.782;9.190;2023-02-19T02:01:25;1.45;;;1.17;;
24631;SDS011;59977;48.782;9.190;2023-02-19T02:03:51;2.13;;;1.17;;
24631;SDS011;59977;48.782;9.190;2023-02-19T02:06:20;1.58;;;1.10;;
24631;SDS011;59977;48.782;9.190;2023-02-19T02:08:49;1.60;;;1.00;;
24631;SDS011;59977;48.782;9.190;2023-02-19T02:11:37;1.20;;;1.10;;
24631;SDS011;59977;48.782;9.190;2023-02-19T02:14:08;1.45;;;1.10;;
24631;SDS011;59977;48.782;9.190;2023-02-19T02:35:51;2.03;;;1.30;;
24631;SDS011;59977;48.782;9.190;2023-02-19T02:38:21;3.03;;;1.52;;
24631;SDS011;59977;48.782;9.190;2023-02-19T02:40:50;2.85;;;1.50;;
24631;SDS011;59977;48.782;9.190;2023-02-19T02:43:17;2.92;;;1.35;;
24631;SDS011;59977;48.782;9.190;2023-02-19T02:45:43;2.17;;;1.30;;
24631;SDS011;59977;48.782;9.190;2023-02-19T02:51:16;2.15;;;1.30;;
24631;SDS011;59977;48.782;9.190;2023-02-19T02:53:48;1.92;;;1.27;;
24631;SDS011;59977;48.782;9.190;2023-02-19T02:56:40;2.97;;;1.40;;
24631;SDS011;59977;48.782;9.190;2023-02-19T02:59:08;2.40;;;1.35;;
24631;SDS011;59977;48.782;9.190;2023-02-19T03:04:36;2.10;;;1.20;;
24631;SDS011;59977;48.782;9.190;2023-02-19T03:07:23;2.25;;;1.35;;
24631;SDS011;59977;48.782;9.190;2023-02-19T03:09:55;2.13;;;1.65;;
24631;SDS011;59977;48.782;9.190;2023-02-19T03:12:22;2.30;;;1.10;;
24631;SDS011;59977;48.782;9.190;2023-02-19T03:15:09;2.60;;;1.25;;
24631;SDS011;59977;48.782;9.190;2023-02-19T03:17:58;1.48;;;1.10;;
24631;SDS011;59977;48.782;9.190;2023-02-19T03:20:47;1.98;;;1.17;;
24631;SDS011;59977;48.782;9.190;2023-02-19T03:23:16;2.78;;;1.20;;
24631;SDS011;59977;48.782;9.190;2023-02-19T03:25:44;2.38;;;1.20;;
24631;SDS011;59977;48.782;9.190;2023-02-19T03:28:31;2.53;;;1.23;;
24631;SDS011;59977;48.782;9.190;2023-02-19T03:31:17;1.60;;;1.33;;
24631;SDS011;59977;48.782;9.190;2023-02-19T03:33:46;2.47;;;1.27;;
24631;SDS011;59977;48.782;9.190;2023-02-19T03:36:18;2.15;;;1.33;;
24631;SDS011;59977;48.782;9.190;2023-02-19T03:38:59;1.58;;;1.40;;
24631;SDS011;59977;48.782;9.190;2023-02-19T03:54:46;3.20;;;1.40;;
24631;SDS011;59977;48.782;9.190;2023-02-19T04:00:20;3.40;;;1.20;;
24631;SDS011;59977;48.782;9.190;2023-02-19T04:03:04;4.05;;;1.23;;
24631;SDS011;59977;48.782;9.190;2023-02-19T04:05:52;4.68;;;1.20;;
24631;SDS011;59977;48.782;9.190;2023-02-19T04:08:24;3.60;;;1.40;;
24631;SDS011;59977;48.782;9.190;2023-02-19T04:10:50;2.65;;;1.13;;
24631;SDS011;59977;48.782;9.190;2023-02-19T04:13:22;1.88;;;1.20;;
24631;SDS011;59977;48.782;9.190;2023-02-19T04:16:12;3.65;;;0.95;;
24631;SDS011;59977;48.782;9.190;2023-02-19T04:18:43;1.25;;;1.00;;
24631;SDS011;59977;48.782;9.190;2023-02-19T04:21:14;1.70;;;0.77;;
24631;SDS011;59977;48.782;9.190;2023-02-19T04:23:41;1.02;;;0.90;;
24631;SDS011;59977;48.782;9.190;2023-02-19T04:26:08;1.77;;;0.90;;
24631;SDS011;59977;48.782;9.190;2023-02-19T04:28:36;1.45;;;0.90;;
24631;SDS011;59977;48.782;9.190;2023-02-19T04:31:03;1.10;;;1.00;;
24631;SDS011;59977;48.782;9.190;2023-02-19T04:33:29;1.10;;;0.90;;
24631;SDS011;59977;48.782;9.190;2023-02-19T04:35:55;3.22;;;0.77;;
24631;SDS011;59977;48.782;9.190;2023-02-19T04:38:21;2.25;;;1.00;;
24631;SDS011;59977;48.782;9.190;2023-02-19T04:40:46;1.95;;;0.73;;
24631;SDS011;59977;48.782;9.190;2023-02-19T04:43:13;1.30;;;0.70;;
24631;SDS011;59977;48.782;9.190;2023-02-19T04:45:38;1.20;;;0.70;;
24631;SDS011;59977;48.782;9.190;2023-02-19T04:48:04;3.80;;;0.60;;
24631;SDS011;59977;48.782;9.190;2023-02-19T04:50:30;0.85;;;0.63;;
24631;SDS011;59977;48.782;9.190;2023-02-19T04:52:55;1.10;;;0.70;;
24631;SDS011;59977;48.782;9.190;2023-02-19T04:55:21;1.30;;;0.73;;
24631;SDS011;59977;48.782;9.190;2023-02-19T04:57:47;1.30;;;0.60;;
24631;SDS011;59977;48.782;9.190;2023-02-19T05:00:12;2.85;;;0.60;;
24631;SDS011;59977;48.782;9.190;2023-02-19T05:02:38;2.83;;;0.80;;
24631;SDS011;59977;48.782;9.190;2023-02-19T05:05:04;0.73;;;0.50;;
24631;SDS011;59977;48.782;9.190;2023-02-19T05:07:29;0.60;;;0.60;;
24631;SDS011;59977;48.782;9.190;2023-02-19T05:09:56;1.40;;;0.57;;
24631;SDS011;59977;48.782;9.190;2023-02-19T05:12:23;1.88;;;0.65;;
24631;SDS011;59977;48.782;9.190;2023-02-19T05:14:49;0.57;;;0.50;;
24631;SDS011;59977;48.782;9.190;2023-02-19T05:17:15;0.50;;;0.50;;
24631;SDS011;59977;48.782;9.190;2023-02-19T05:19:40;0.40;;;0.40;;
24631;SDS011;59977;48.782;9.190;2023-02-19T05:22:06;0.95;;;0.40;;
24631;SDS011;59977;48.782;9.190;2023-02-19T05:24:31;3.30;;;0.40;;
24631;SDS011;59977;48.782;9.190;2023-02-19T05:26:57;0.40;;;0.40;;
24631;SDS011;59977;48.782;9.190;2023-02-19T05:29:22;0.75;;;0.40;;
24631;SDS011;59977;48.782;9.190;2023-02-19T05:31:48;3.15;;;0.60;;
24631;SDS011;59977;48.782;9.190;2023-02-19T05:34:14;0.40;;;0.40;;
24631;SDS011;59977;48.782;9.190;2023-02-19T05:36:39;0.17;;;0.17;;
24631;SDS011;59977;48.782;9.190;2023-02-19T05:39:05;1.08;;;0.30;;
24631;SDS011;59977;48.782;9.190;2023-02-19T05:41:32;0.20;;;0.20;;
24631;SDS011;59977;48.782;9.190;2023-02-19T05:43:58;0.55;;;0.30;;
24631;SDS011;59977;48.782;9.190;2023-02-19T05:46:25;0.85;;;0.32;;
24631;SDS011;59977;48.782;9.190;2023-02-19T05:48:53;0.20;;;0.20;;
24631;SDS011;59977;48.782;9.190;2023-02-19T05:51:19;0.20;;;0.20;;
24631;SDS011;59977;48.782;9.190;2023-02-19T05:53:46;0.15;;;0.15;;
24631;SDS011;59977;48.782;9.190;2023-02-19T05:58:50;0.20;;;0.20;;
24631;SDS011;59977;48.782;9.190;2023-02-19T06:01:16;0.43;;;0.20;;
24631;SDS011;59977;48.782;9.190;2023-02-19T06:03:44;0.10;;;0.10;;
24631;SDS011;59977;48.782;9.190;2023-02-19T06:06:13;0.50;;;0.28;;
24631;SDS011;59977;48.782;9.190;2023-02-19T06:08:40;0.15;;;0.15;;
24631;SDS011;59977;48.782;9.190;2023-02-19T06:11:06;0.20;;;0.20;;
24631;SDS011;59977;48.782;9.190;2023-02-19T06:13:31;0.20;;;0.20;;
24631;SDS011;59977;48.782;9.190;2023-02-19T06:15:57;0.20;;;0.20;;
24631;SDS011;59977;48.782;9.190;2023-02-19T06:18:23;0.25;;;0.20;;
24631;SDS011;59977;48.782;9.190;2023-02-19T06:20:48;0.22;;;0.22;;
24631;SDS011;59977;48.782;9.190;2023-02-19T06:23:14;0.20;;;0.20;;
24631;SDS011;59977;48.782;9.190;2023-02-19T06:25:39;0.20;;;0.20;;
24631;SDS011;59977;48.782;9.190;2023-02-19T06:28:05;0.45;;;0.10;;
24631;SDS011;59977;48.782;9.190;2023-02-19T06:30:31;0.47;;;0.20;;
24631;SDS011;59977;48.782;9.190;2023-02-19T06:32:56;0.13;;;0.13;;
24631;SDS011;59977;48.782;9.190;2023-02-19T06:35:22;0.30;;;0.20;;
24631;SDS011;59977;48.782;9.190;2023-02-19T06:37:48;0.43;;;0.20;;
24631;SDS011;59977;48.782;9.190;2023-02-19T06:40:14;0.47;;;0.40;;
24631;SDS011;59977;48.782;9.190;2023-02-19T06:42:40;1.25;;;0.30;;
24631;SDS011;59977;48.782;9.190;2023-02-19T06:45:06;0.30;;;0.30;;
24631;SDS011;59977;48.782;9.190;2023-02-19T06:47:32;0.25;;;0.25;;
24631;SDS011;59977;48.782;9.190;2023-02-19T06:49:58;0.30;;;0.30;;
24631;SDS011;59977;48.782;9.190;2023-02-19T06:52:24;2.20;;;1.23;;
24631;SDS011;59977;48.782;9.190;2023-02-19T06:54:51;0.55;;;0.20;;
24631;SDS011;59977;48.782;9.190;2023-02-19T06:57:16;0.30;;;0.30;;
24631;SDS011;59977;48.782;9.190;2023-02-19T06:59:43;2.63;;;0.38;;
24631;SDS011;59977;48.782;9.190;2023-02-19T07:02:11;0.32;;;0.32;;
24631;SDS011;59977;48.782;9.190;2023-02-19T07:04:37;0.30;;;0.30;;
24631;SDS011;59977;48.782;9.190;2023-02-19T07:07:03;0.40;;;0.40;;
24631;SDS011;59977;48.782;9.190;2023-02-19T07:09:29;0.98;;;0.63;;
24631;SDS011;59977;48.782;9.190;2023-02-19T07:11:55;0.50;;;0.50;;
24631;SDS011;59977;48.782;9.190;2023-02-19T07:14:20;0.52;;;0.52;;
24631;SDS011;59977;48.782;9.190;2023-02-19T07:16:46;0.68;;;0.60;;
24631;SDS011;59977;48.782;9.190;2023-02-19T07:19:12;1.30;;;0.60;;
24631;SDS011;59977;48.782;9.190;2023-02-19T07:21:39;0.60;;;0.60;;
24631;SDS011;59977;48.782;9.190;2023-02-19T07:24:06;0.50;;;0.50;;
24631;SDS011;59977;48.782;9.190;2023-02-19T07:26:33;2.13;;;0.60;;
24631;SDS011;59977;48.782;9.190;2023-02-19T07:28:59;0.47;;;0.47;;
24631;SDS011;59977;48.782;9.190;2023-02-19T07:31:26;0.60;;;0.50;;
24631;SDS011;59977;48.782;9.190;2023-02-19T07:33:53;0.80;;;0.50;;
24631;SDS011;59977;48.782;9.190;2023-02-19T07:36:20;0.50;;;0.50;;
24631;SDS011;59977;48.782;9.190;2023-02-19T07:38:56;0.80;;;0.60;;
24631;SDS011;59977;48.782;9.190;2023-02-19T07:41:23;2.10;;;0.50;;
24631;SDS011;59977;48.782;9.190;2023-02-19T07:43:49;1.40;;;0.63;;
24631;SDS011;59977;48.782;9.190;2023-02-19T07:46:14;0.85;;;0.68;;
24631;SDS011;59977;48.782;9.190;2023-02-19T07:48:41;1.00;;;0.57;;
24631;SDS011;59977;48.782;9.190;2023-02-19T07:51:10;0.70;;;0.70;;
24631;SDS011;59977;48.782;9.190;2023-02-19T07:53:42;1.25;;;1.00;;
24631;SDS011;59977;48.782;9.190;2023-02-19T07:56:11;0.50;;;0.50;;
24631;SDS011;59977;48.782;9.190;2023-02-19T07:58:37;1.35;;;0.70;;
24631;SDS011;59977;48.782;9.190;2023-02-19T08:01:07;0.90;;;0.80;;
24631;SDS011;59977;48.782;9.190;2023-02-19T08:03:40;2.50;;;0.80;;
24631;SDS011;59977;48.782;9.190;2023-02-19T08:06:07;1.60;;;0.80;;
24631;SDS011;59977;48.782;9.190;2023-02-19T08:08:35;0.90;;;0.70;;
24631;SDS011;59977;48.782;9.190;2023-02-19T08:11:01;0.70;;;0.70;;
24631;SDS011;59977;48.782;9.190;2023-02-19T08:13:47;1.25;;;0.80;;
24631;SDS011;59977;48.782;9.190;2023-02-19T08:16:14;0.77;;;0.63;;
24631;SDS011;59977;48.782;9.190;2023-02-19T08:18:41;1.48;;;0.70;;
24631;SDS011;59977;48.782;9.190;2023-02-19T08:21:08;1.10;;;0.80;;
24631;SDS011;59977;48.782;9.190;2023-02-19T08:23:34;0.90;;;0.68;;
24631;SDS011;59977;48.782;9.190;2023-02-19T08:26:00;0.95;;;0.80;;
24631;SDS011;59977;48.782;9.190;2023-02-19T08:28:26;1.05;;;0.70;;
24631;SDS011;59977;48.782;9.190;2023-02-19T08:30:56;1.85;;;0.60;;
24631;SDS011;59977;48.782;9.190;2023-02-19T08:33:26;1.88;;;0.68;;
24631;SDS011;59977;48.782;9.190;2023-02-19T08:35:52;1.33;;;0.70;;
24631;SDS011;59977;48.782;9.190;2023-02-19T08:38:18;1.33;;;0.60;;
24631;SDS011;59977;48.782;9.190;2023-02-19T08:40:43;0.77;;;0.50;;
24631;SDS011;59977;48.782;9.190;2023-02-19T08:43:11;0.90;;;0.50;;
24631;SDS011;59977;48.782;9.190;2023-02-19T08:45:39;2.88;;;0.68;;
24631;SDS011;59977;48.782;9.190;2023-02-19T08:48:06;0.80;;;0.60;;
24631;SDS011;59977;48.782;9.190;2023-02-19T08:50:32;1.17;;;0.63;;
24631;SDS011;59977;48.782;9.190;2023-02-19T08:52:59;0.73;;;0.50;;
24631;SDS011;59977;48.782;9.190;2023-02-19T08:55:26;0.75;;;0.60;;
24631;SDS011;59977;48.782;9.190;2023-02-19T08:57:51;0.60;;;0.60;;
24631;SDS011;59977;48.782;9.190;2023-02-19T09:00:17;1.77;;;0.70;;
24631;SDS011;59977;48.782;9.190;2023-02-19T09:02:43;0.85;;;0.60;;
24631;SDS011;59977;48.782;9.190;2023-02-19T09:05:10;1.60;;;0.60;;
24631;SDS011;59977;48.782;9.190;2023-02-19T09:07:36;0.52;;;0.50;;
24631;SDS011;59977;48.782;9.190;2023-02-19T09:10:01;2.45;;;0.70;;
24631;SDS011;59977;48.782;9.190;2023-02-19T09:12:28;0.65;;;0.65;;
24631;SDS011;59977;48.782;9.190;2023-02-19T09:14:54;1.17;;;0.70;;
24631;SDS011;59977;48.782;9.190;2023-02-19T09:17:20;1.83;;;0.85;;
24631;SDS011;59977;48.782;9.190;2023-02-19T09:19:45;2.10;;;0.90;;
24631;SDS011;59977;48.782;9.190;2023-02-19T09:22:11;1.02;;;0.70;;
24631;SDS011;59977;48.782;9.190;2023-02-19T09:24:37;1.48;;;0.90;;
24631;SDS011;59977;48.782;9.190;2023-02-19T09:27:03;10.32;;;1.67;;
24631;SDS011;59977;48.782;9.190;2023-02-19T09:29:29;1.58;;;1.00;;
24631;SDS011;59977;48.782;9.190;2023-02-19T09:31:58;5.60;;;1.35;;
24631;SDS011;59977;48.782;9.190;2023-02-19T09:34:26;3.92;;;0.98;;
24631;SDS011;59977;48.782;9.190;2023-02-19T09:37:00;3.25;;;0.90;;
24631;SDS011;59977;48.782;9.190;2023-02-19T09:39:30;3.13;;;0.80;;
24631;SDS011;59977;48.782;9.190;2023-02-19T09:42:02;2.45;;;1.00;;
24631;SDS011;59977;48.782;9.190;2023-02-19T09:44:37;7.45;;;1.10;;
24631;SDS011;59977;48.782;9.190;2023-02-19T09:47:16;5.97;;;1.20;;
24631;SDS011;59977;48.782;9.190;2023-02-19T09:50:06;3.95;;;0.82;;
24631;SDS011;59977;48.782;9.190;2023-02-19T09:52:38;6.50;;;1.35;;
24631;SDS011;59977;48.782;9.190;2023-02-19T09:55:14;2.47;;;0.80;;
24631;SDS011;59977;48.782;9.190;2023-02-19T09:57:41;4.28;;;0.70;;
24631;SDS011;59977;48.782;9.190;2023-02-19T10:05:32;3.67;;;1.00;;
24631;SDS011;59977;48.782;9.190;2023-02-19T10:07:59;3.35;;;0.80;;
24631;SDS011;59977;48.782;9.190;2023-02-19T10:10:29;3.03;;;0.98;;
24631;SDS011;59977;48.782;9.190;2023-02-19T10:13:21;2.72;;;1.10;;
24631;SDS011;59977;48.782;9.190;2023-02-19T10:18:22;4.57;;;1.30;;
24631;SDS011;59977;48.782;9.190;2023-02-19T10:20:52;4.50;;;1.15;;
24631;SDS011;59977;48.782;9.190;2023-02-19T10:23:18;3.83;;;1.08;;
24631;SDS011;59977;48.782;9.190;2023-02-19T10:25:55;6.72;;;1.10;;
24631;SDS011;59977;48.782;9.190;2023-02-19T10:28:23;4.05;;;1.05;;
24631;SDS011;59977;48.782;9.190;2023-02-19T10:30:56;5.00;;;0.95;;
24631;SDS011;59977;48.782;9.190;2023-02-19T10:33:23;6.57;;;1.25;;
24631;SDS011;59977;48.782;9.190;2023-02-19T10:35:51;4.10;;;1.00;;
24631;SDS011;59977;48.782;9.190;2023-02-19T10:38:28;7.60;;;0.95;;
24631;SDS011;59977;48.782;9.190;2023-02-19T10:41:16;5.28;;;1.15;;
24631;SDS011;59977;48.782;9.190;2023-02-19T10:43:51;5.35;;;1.08;;
24631;SDS011;59977;48.782;9.190;2023-02-19T10:46:31;3.22;;;1.08;;
24631;SDS011;59977;48.782;9.190;2023-02-19T10:49:41;7.68;;;1.58;;
24631;SDS011;59977;48.782;9.190;2023-02-19T10:51:48;6.57;;;1.00;;
24631;SDS011;59977;48.782;9.190;2023-02-19T10:54:15;5.25;;;0.90;;
24631;SDS011;59977;48.782;9.190;2023-02-19T10:56:48;2.45;;;0.90;;
24631;SDS011;59977;48.782;9.190;2023-02-19T10:59:18;3.13;;;0.90;;
24631;SDS011;59977;48.782;9.190;2023-02-19T11:01:53;5.70;;;1.00;;
24631;SDS011;59977;48.782;9.190;2023-02-19T11:04:22;2.53;;;1.10;;
24631;SDS011;59977;48.782;9.190;2023-02-19T11:06:50;2.53;;;0.93;;
24631;SDS011;59977;48.782;9.190;2023-02-19T11:09:36;2.58;;;0.93;;
24631;SDS011;59977;48.782;9.190;2023-02-19T11:12:03;6.25;;;1.02;;
24631;SDS011;59977;48.782;9.190;2023-02-19T11:14:30;5.95;;;1.30;;
24631;SDS011;59977;48.782;9.190;2023-02-19T11:16:58;5.63;;;1.20;;
24631;SDS011;59977;48.782;9.190;2023-02-19T11:19:29;4.97;;;1.20;;
24631;SDS011;59977;48.782;9.190;2023-02-19T11:21:56;5.57;;;1.40;;
24631;SDS011;59977;48.782;9.190;2023-02-19T11:24:30;3.03;;;1.00;;
24631;SDS011;59977;48.782;9.190;2023-02-19T11:26:59;2.78;;;0.98;;
24631;SDS011;59977;48.782;9.190;2023-02-19T11:29:27;2.88;;;0.82;;
24631;SDS011;59977;48.782;9.190;2023-02-19T11:31:59;4.50;;;0.87;;
24631;SDS011;59977;48.782;9.190;2023-02-19T11:34:43;3.33;;;1.25;;
24631;SDS011;59977;48.782;9.190;2023-02-19T11:37:11;2.85;;;1.00;;
24631;SDS011;59977;48.782;9.190;2023-02-19T11:39:39;6.00;;;0.90;;
24631;SDS011;59977;48.782;9.190;2023-02-19T11:42:10;6.10;;;1.65;;
24631;SDS011;59977;48.782;9.190;2023-02-19T11:44:53;3.25;;;1.00;;
24631;SDS011;59977;48.782;9.190;2023-02-19T11:50:26;4.32;;;0.93;;
24631;SDS011;59977;48.782;9.190;2023-02-19T11:53:22;5.00;;;1.20;;
24631;SDS011;59977;48.782;9.190;2023-02-19T11:58:44;2.83;;;1.23;;
24631;SDS011;59977;48.782;9.190;2023-02-19T12:09:30;5.13;;;1.00;;
24631;SDS011;59977;48.782;9.190;2023-02-19T12:14:59;2.88;;;0.90;;
24631;SDS011;59977;48.782;9.190;2023-02-19T12:22:29;3.78;;;1.08;;
24631;SDS011;59977;48.782;9.190;2023-02-19T12:25:09;3.03;;;1.10;;
24631;SDS011;59977;48.782;9.190;2023-02-19T12:28:05;2.97;;;1.00;;
24631;SDS011;59977;48.782;9.190;2023-02-19T12:30:56;3.03;;;0.95;;
24631;SDS011;59977;48.782;9.190;2023-02-19T12:33:35;5.55;;;1.00;;
24631;SDS011;59977;48.782;9.190;2023-02-19T12:39:17;2.10;;;0.90;;
24631;SDS011;59977;48.782;9.190;2023-02-19T12:42:05;5.13;;;1.02;;
24631;SDS011;59977;48.782;9.190;2023-02-19T12:47:06;2.80;;;1.10;;
24631;SDS011;59977;48.782;9.190;2023-02-19T12:49:41;5.07;;;0.95;;
24631;SDS011;59977;48.782;9.190;2023-02-19T12:52:15;4.80;;;1.02;;
24631;SDS011;59977;48.782;9.190;2023-02-19T12:54:52;4.68;;;1.10;;
24631;SDS011;59977;48.782;9.190;2023-02-19T12:57:23;2.58;;;0.85;;
24631;SDS011;59977;48.782;9.190;2023-02-19T12:59:58;4.82;;;1.00;;
24631;SDS011;59977;48.782;9.190;2023-02-19T13:02:49;5.68;;;1.35;;
24631;SDS011;59977;48.782;9.190;2023-02-19T13:05:37;1.80;;;0.85;;
24631;SDS011;59977;48.782;9.190;2023-02-19T13:08:14;3.05;;;1.05;;
24631;SDS011;59977;48.782;9.190;2023-02-19T13:10:55;3.47;;;1.00;;
24631;SDS011;59977;48.782;9.190;2023-02-19T13:13:33;5.07;;;1.20;;
24631;SDS011;59977;48.782;9.190;2023-02-19T13:16:07;4.05;;;1.20;;
24631;SDS011;59977;48.782;9.190;2023-02-19T13:18:48;7.90;;;1.05;;
24631;SDS011;59977;48.782;9.190;2023-02-19T13:21:24;3.88;;;1.50;;
24631;SDS011;59977;48.782;9.190;2023-02-19T13:24:22;3.38;;;1.00;;
24631;SDS011;59977;48.782;9.190;2023-02-19T13:27:11;2.42;;;1.13;;
24631;SDS011;59977;48.782;9.190;2023-02-19T13:35:26;4.63;;;1.02;;
24631;SDS011;59977;48.782;9.190;2023-02-19T13:38:12;3.95;;;1.08;;
24631;SDS011;59977;48.782;9.190;2023-02-19T13:40:40;5.72;;;1.60;;
24631;SDS011;59977;48.782;9.190;2023-02-19T13:43:19;3.00;;;1.13;;
24631;SDS011;59977;48.782;9.190;2023-02-19T13:45:59;3.50;;;0.95;;
24631;SDS011;59977;48.782;9.190;2023-02-19T13:48:37;4.65;;;1.13;;
24631;SDS011;59977;48.782;9.190;2023-02-19T14:02:04;4.88;;;1.30;;
24631;SDS011;59977;48.782;9.190;2023-02-19T14:14:41;3.83;;;1.27;;
24631;SDS011;59977;48.782;9.190;2023-02-19T14:19:56;8.68;;;1.73;;
24631;SDS011;59977;48.782;9.190;2023-02-19T14:22:49;4.72;;;1.40;;
24631;SDS011;59977;48.782;9.190;2023-02-19T14:27:54;4.38;;;1.42;;
24631;SDS011;59977;48.782;9.190;2023-02-19T14:30:34;5.65;;;1.48;;
24631;SDS011;59977;48.782;9.190;2023-02-19T14:33:10;2.88;;;1.27;;
24631;SDS011;59977;48.782;9.190;2023-02-19T14:35:41;11.73;;;1.55;;
24631;SDS011;59977;48.782;9.190;2023-02-19T14:38:13;7.28;;;1.48;;
24631;SDS011;59977;48.782;9.190;2023-02-19T14:40:43;4.88;;;1.63;;
24631;SDS011;59977;48.782;9.190;2023-02-19T14:43:11;6.30;;;1.25;;
24631;SDS011;59977;48.782;9.190;2023-02-19T14:45:41;5.45;;;1.63;;
24631;SDS011;59977;48.782;9.190;2023-02-19T14:48:21;3.80;;;1.23;;
24631;SDS011;59977;48.782;9.190;2023-02-19T14:51:05;5.25;;;1.13;;
24631;SDS011;59977;48.782;9.190;2023-02-19T14:53:37;5.55;;;1.10;;
24631;SDS011;59977;48.782;9.190;2023-02-19T14:56:06;2.55;;;1.10;;
24631;SDS011;59977;48.782;9.190;2023-02-19T14:58:41;5.70;;;1.08;;
24631;SDS011;59977;48.782;9.190;2023-02-19T15:01:23;4.35;;;1.50;;
24631;SDS011;59977;48.782;9.190;2023-02-19T15:03:52;6.72;;;1.65;;
24631;SDS011;59977;48.782;9.190;2023-02-19T15:06:18;8.40;;;1.42;;
24631;SDS011;59977;48.782;9.190;2023-02-19T15:08:45;3.20;;;1.08;;
24631;SDS011;59977;48.782;9.190;2023-02-19T15:11:14;2.88;;;1.10;;
24631;SDS011;59977;48.782;9.190;2023-02-19T15:13:46;5.65;;;1.38;;
24631;SDS011;59977;48.782;9.190;2023-02-19T15:18:46;3.75;;;1.50;;
24631;SDS011;59977;48.782;9.190;2023-02-19T15:21:26;6.50;;;1.60;;
24631;SDS011;59977;48.782;9.190;2023-02-19T15:24:02;5.82;;;1.30;;
24631;SDS011;59977;48.782;9.190;2023-02-19T15:26:37;7.70;;;1.40;;
24631;SDS011;59977;48.782;9.190;2023-02-19T15:29:12;6.63;;;1.60;;
24631;SDS011;59977;48.782;9.190;2023-02-19T15:34:55;7.53;;;1.77;;
24631;SDS011;59977;48.782;9.190;2023-02-19T15:37:23;8.73;;;1.90;;
24631;SDS011;59977;48.782;9.190;2023-02-19T15:40:00;6.70;;;1.45;;
24631;SDS011;59977;48.782;9.190;2023-02-19T15:45:30;5.90;;;1.45;;
24631;SDS011;59977;48.782;9.190;2023-02-19T15:50:56;6.50;;;1.85;;
24631;SDS011;59977;48.782;9.190;2023-02-19T15:53:42;6.25;;;1.52;;
24631;SDS011;59977;48.782;9.190;2023-02-19T15:56:48;6.72;;;1.38;;
24631;SDS011;59977;48.782;9.190;2023-02-19T15:59:26;7.40;;;1.40;;
24631;SDS011;59977;48.782;9.190;2023-02-19T16:02:07;4.82;;;1.35;;
24631;SDS011;59977;48.782;9.190;2023-02-19T16:04:37;5.85;;;1.48;;
24631;SDS011;59977;48.782;9.190;2023-02-19T16:07:04;9.02;;;1.67;;
24631;SDS011;59977;48.782;9.190;2023-02-19T16:09:31;4.50;;;1.30;;
24631;SDS011;59977;48.782;9.190;2023-02-19T16:12:01;3.58;;;1.33;;
24631;SDS011;59977;48.782;9.190;2023-02-19T16:14:42;3.85;;;1.42;;
24631;SDS011;59977;48.782;9.190;2023-02-19T16:19:56;5.35;;;1.52;;
24631;SDS011;59977;48.782;9.190;2023-02-19T16:22:27;6.55;;;1.52;;
24631;SDS011;59977;48.782;9.190;2023-02-19T16:24:56;6.78;;;1.60;;
24631;SDS011;59977;48.782;9.190;2023-02-19T16:27:32;7.78;;;1.70;;
24631;SDS011;59977;48.782;9.190;2023-02-19T16:30:06;4.93;;;1.65;;
24631;SDS011;59977;48.782;9.190;2023-02-19T16:32:34;6.63;;;1.43;;
24631;SDS011;59977;48.782;9.190;2023-02-19T16:35:00;5.38;;;1.35;;
24631;SDS011;59977;48.782;9.190;2023-02-19T16:37:30;5.78;;;1.55;;
24631;SDS011;59977;48.782;9.190;2023-02-19T16:42:32;3.63;;;1.42;;
24631;SDS011;59977;48.782;9.190;2023-02-19T16:45:19;6.50;;;1.52;;
24631;SDS011;59977;48.782;9.190;2023-02-19T16:47:45;7.80;;;1.50;;
24631;SDS011;59977;48.782;9.190;2023-02-19T16:50:16;5.15;;;1.85;;
24631;SDS011;59977;48.782;9.190;2023-02-19T16:55:22;6.15;;;1.70;;
24631;SDS011;59977;48.782;9.190;2023-02-19T16:57:49;6.55;;;1.50;;
24631;SDS011;59977;48.782;9.190;2023-02-19T17:00:18;8.05;;;1.83;;
24631;SDS011;59977;48.782;9.190;2023-02-19T17:02:46;4.72;;;1.85;;
24631;SDS011;59977;48.782;9.190;2023-02-19T17:05:13;6.35;;;1.88;;
24631;SDS011;59977;48.782;9.190;2023-02-19T17:07:39;4.63;;;1.50;;
24631;SDS011;59977;48.782;9.190;2023-02-19T17:10:05;6.57;;;1.70;;
24631;SDS011;59977;48.782;9.190;2023-02-19T17:12:31;7.15;;;1.63;;
24631;SDS011;59977;48.782;9.190;2023-02-19T17:14:57;7.60;;;2.15;;
24631;SDS011;59977;48.782;9.190;2023-02-19T17:17:23;4.50;;;1.88;;
24631;SDS011;59977;48.782;9.190;2023-02-19T17:19:48;9.63;;;1.52;;
24631;SDS011;59977;48.782;9.190;2023-02-19T17:22:15;6.65;;;1.83;;